Terminal Aerodrome Forecast
Issued by NWS Sioux Falls, SD

Home | Current Version | Previous Version | Text Only | Print | Product List | Glossary On
Versions: 1 2 3 4 5 6 7 8 9 10 11 12 13
923
FTUS43 KFSD 051205 RRA
TAFFSD
TAF
KFSD 051205Z 0512/0612 17013KT P6SM SCT100 OVC150
     FM051700 20012KT P6SM BKN150
     FM052000 25013G23KT P6SM BKN090
     FM052300 28015G25KT P6SM BKN050
     FM060300 30013G24KT P6SM BKN025=

USA.gov is the U.S. government's official web portal to all federal, state and local government web resources and services.